Time;durP1;ratioP1;P1;durP2;ratioP2;P2;SDS_P1;SDS_P2;PMS_P1;PMS_P2;Temp;Humidity;BMP_temperature;BMP_pressure;BME280_temperature;BME280_humidity;BME280_pressure;Samples;Min_cycle;Max_cycle;Signal;HPM_P1;HPM_P2
2021/10/19 04:24:16;;;;;;;34.55;13.32;;;16.80;94.80;;;;;;5164082;27;20824;-77
2021/10/19 04:26:43;;;;;;;30.02;12.00;;;16.90;94.60;;;;;;5170987;27;20030;-78
2021/10/19 04:29:10;;;;;;;37.03;13.50;;;17.20;94.30;;;;;;5164692;27;20014;-78
2021/10/19 04:31:37;;;;;;;32.22;13.07;;;17.40;93.80;;;;;;5166693;27;20034;-77
2021/10/19 04:34:04;;;;;;;36.03;12.75;;;17.60;93.60;;;;;;5156490;27;20050;-77
2021/10/19 04:36:30;;;;;;;27.75;11.48;;;17.80;93.00;;;;;;5175019;27;20022;-77
2021/10/19 04:39:05;;;;;;;42.67;13.27;;;17.80;92.40;;;;;;5165571;27;20026;-78
2021/10/19 05:02:59;;;;;;;37.45;11.85;;;17.30;92.80;;;;;;5099285;27;20450;-76
2021/10/19 05:05:25;;;;;;;37.47;11.77;;;17.80;92.20;;;;;;5093033;28;20035;-77
2021/10/19 05:07:50;;;;;;;35.38;11.18;;;17.80;91.60;;;;;;5092599;28;20039;-78
2021/10/19 05:10:17;;;;;;;32.83;11.65;;;17.80;91.70;;;;;;5091983;28;20050;-74
2021/10/19 05:12:42;;;;;;;26.17;11.57;;;17.90;91.60;;;;;;5103203;28;20027;-75
2021/10/19 05:15:08;;;;;;;23.52;10.60;;;18.00;91.30;;;;;;5090986;28;20024;-76
2021/10/19 05:17:34;;;;;;;24.70;9.32;;;18.00;90.50;;;;;;5092344;28;20028;-76
2021/10/19 05:20:00;;;;;;;25.63;10.60;;;18.00;90.70;;;;;;5092414;28;20027;-75
2021/10/19 05:22:26;;;;;;;33.03;13.07;;;18.00;90.50;;;;;;5091476;28;20372;-76
2021/10/19 05:24:52;;;;;;;33.83;11.50;;;18.10;90.60;;;;;;5092117;28;20028;-78
2021/10/19 05:27:18;;;;;;;30.42;10.55;;;18.00;90.40;;;;;;5092360;28;20021;-81
2021/10/19 05:29:43;;;;;;;29.08;10.90;;;17.90;90.30;;;;;;5091418;28;20031;-79
2021/10/19 05:32:09;;;;;;;28.00;10.35;;;18.00;90.40;;;;;;5090750;28;20024;-79
2021/10/19 05:34:35;;;;;;;29.50;10.80;;;17.90;90.00;;;;;;5072984;28;20024;-78
2021/10/19 05:37:00;;;;;;;30.95;11.98;;;17.90;90.30;;;;;;5091566;28;20013;-78
2021/10/19 05:39:26;;;;;;;30.98;11.65;;;17.80;90.30;;;;;;5091930;28;20028;-77
2021/10/19 05:41:54;;;;;;;31.73;11.82;;;17.90;90.30;;;;;;5090938;28;20029;-77
2021/10/19 05:44:21;;;;;;;29.48;10.32;;;17.90;90.50;;;;;;5091861;28;20070;-77
2021/10/19 05:46:47;;;;;;;32.45;11.50;;;17.90;90.20;;;;;;5091884;28;20440;-77
2021/10/19 05:49:12;;;;;;;27.80;11.63;;;17.90;89.90;;;;;;5090941;28;20061;-77
2021/10/19 05:51:38;;;;;;;29.73;11.52;;;18.00;90.10;;;;;;5091752;28;20028;-77
2021/10/19 05:54:04;;;;;;;21.25;10.35;;;17.90;90.30;;;;;;5086907;28;20402;-77
2021/10/19 05:56:29;;;;;;;28.70;11.85;;;18.00;90.00;;;;;;5071479;28;20028;-77
2021/10/19 05:59:00;;;;;;;25.08;10.93;;;17.90;89.80;;;;;;5072507;28;20025;-77
2021/10/19 06:01:26;;;;;;;32.65;12.00;;;17.90;89.70;;;;;;5091539;28;20048;-77
2021/10/19 06:03:52;;;;;;;27.58;11.15;;;17.80;89.90;;;;;;5076473;28;20043;-77
2021/10/19 06:06:18;;;;;;;33.53;13.02;;;17.80;89.80;;;;;;5078069;28;20100;-77
2021/10/19 06:08:43;;;;;;;30.40;12.38;;;17.80;89.80;;;;;;5077913;28;20449;-77
2021/10/19 06:11:09;;;;;;;28.63;11.80;;;17.80;89.90;;;;;;5092542;28;20063;-77
2021/10/19 06:13:34;;;;;;;30.58;12.95;;;17.60;89.80;;;;;;5077940;28;20020;-77
2021/10/19 06:16:03;;;;;;;33.25;13.63;;;17.70;89.90;;;;;;5077288;28;20036;-77
2021/10/19 06:18:28;;;;;;;33.17;13.93;;;17.70;90.10;;;;;;5077807;28;20035;-77
2021/10/19 06:20:54;;;;;;;28.10;12.23;;;17.70;89.60;;;;;;5076352;28;20562;-77
2021/10/19 06:23:20;;;;;;;30.20;12.88;;;17.70;90.00;;;;;;5076923;28;20035;-77
2021/10/19 06:25:46;;;;;;;31.05;13.07;;;17.70;89.80;;;;;;5076143;28;20031;-77
2021/10/19 06:28:12;;;;;;;37.20;15.50;;;17.70;90.00;;;;;;5076296;28;20036;-77
2021/10/19 06:30:38;;;;;;;36.33;14.43;;;17.60;89.80;;;;;;5076618;28;20032;-77
2021/10/19 06:33:04;;;;;;;29.02;13.40;;;17.60;89.40;;;;;;5077447;28;20410;-77
2021/10/19 06:35:30;;;;;;;33.15;15.23;;;17.60;90.00;;;;;;5077276;28;20424;-77
2021/10/19 06:37:56;;;;;;;32.13;14.30;;;17.60;89.70;;;;;;5072342;28;20040;-78
2021/10/19 06:40:21;;;;;;;30.95;13.75;;;17.70;89.90;;;;;;5072865;28;20021;-77
2021/10/19 06:42:47;;;;;;;29.95;15.15;;;17.60;89.80;;;;;;5058518;28;20048;-77
2021/10/19 06:45:13;;;;;;;29.92;13.80;;;17.70;89.90;;;;;;5092907;28;20017;-77
2021/10/19 06:47:39;;;;;;;39.50;15.07;;;17.70;89.60;;;;;;5077213;28;20039;-77
2021/10/19 06:50:10;;;;;;;34.58;14.23;;;17.60;89.30;;;;;;5077370;28;20031;-76
2021/10/19 06:52:36;;;;;;;37.08;15.55;;;17.60;89.60;;;;;;5076963;28;20398;-77
2021/10/19 06:55:04;;;;;;;30.80;13.57;;;17.70;89.80;;;;;;5076912;28;20025;-77
2021/10/19 06:57:30;;;;;;;36.58;16.10;;;17.70;89.70;;;;;;5076044;28;20040;-77
2021/10/19 06:59:59;;;;;;;42.88;14.70;;;17.70;89.40;;;;;;5075716;28;20020;-77
2021/10/19 07:02:25;;;;;;;31.27;15.07;;;17.70;89.30;;;;;;5074951;28;20057;-77
2021/10/19 07:04:51;;;;;;;37.15;15.75;;;17.70;89.50;;;;;;5076924;28;20077;-77
2021/10/19 07:07:17;;;;;;;34.70;14.48;;;17.60;89.30;;;;;;5071583;28;20029;-77
2021/10/19 07:09:42;;;;;;;31.20;14.63;;;17.70;89.70;;;;;;5072531;28;20083;-77
2021/10/19 07:12:08;;;;;;;36.47;15.18;;;17.60;89.10;;;;;;5056837;28;20025;-77
2021/10/19 07:14:34;;;;;;;33.25;14.45;;;17.70;89.20;;;;;;5074845;28;20483;-77
2021/10/19 07:16:59;;;;;;;37.28;14.35;;;17.70;89.20;;;;;;5075290;28;20086;-77
2021/10/19 07:19:25;;;;;;;37.25;15.15;;;17.60;89.30;;;;;;5075314;28;20048;-77
2021/10/19 07:21:51;;;;;;;35.38;16.05;;;17.60;89.60;;;;;;5090484;28;20033;-77
2021/10/19 07:24:16;;;;;;;37.40;15.55;;;17.60;89.40;;;;;;5091132;28;20028;-77
2021/10/19 07:26:42;;;;;;;35.88;15.40;;;17.60;89.80;;;;;;5076805;28;20024;-77
2021/10/19 07:29:09;;;;;;;33.35;13.95;;;17.70;89.00;;;;;;5091132;28;20030;-77
2021/10/19 07:31:35;;;;;;;31.55;14.85;;;17.70;89.20;;;;;;5074841;28;20027;-77
2021/10/19 07:34:02;;;;;;;30.75;13.85;;;17.70;89.20;;;;;;5076298;28;20111;-77
2021/10/19 07:36:27;;;;;;;35.42;15.05;;;17.80;89.30;;;;;;5074545;28;20025;-77
2021/10/19 07:38:53;;;;;;;32.50;13.30;;;17.80;89.30;;;;;;5076086;28;20021;-77
2021/10/19 07:41:19;;;;;;;23.15;12.32;;;17.80;88.90;;;;;;5074874;28;20036;-77
2021/10/19 07:43:44;;;;;;;28.80;14.20;;;17.80;89.10;;;;;;5074981;28;20131;-77
2021/10/19 07:46:10;;;;;;;30.60;13.57;;;17.80;88.80;;;;;;5074381;28;20445;-77
2021/10/19 07:48:36;;;;;;;30.50;14.43;;;17.80;89.00;;;;;;5076092;28;20454;-77
2021/10/19 07:51:02;;;;;;;35.35;15.38;;;17.80;88.60;;;;;;5091601;28;20033;-77
2021/10/19 07:53:28;;;;;;;31.50;15.32;;;17.90;88.80;;;;;;5075750;28;20025;-77
2021/10/19 07:55:53;;;;;;;32.20;15.20;;;18.00;88.10;;;;;;5080854;28;20028;-77
2021/10/19 07:58:19;;;;;;;28.88;14.18;;;18.00;87.90;;;;;;5075185;28;20099;-77
2021/10/19 08:00:45;;;;;;;34.83;15.80;;;18.00;88.10;;;;;;5074284;28;20503;-77
2021/10/19 08:03:10;;;;;;;34.28;16.40;;;18.00;88.70;;;;;;5074580;28;20383;-77
2021/10/19 08:05:37;;;;;;;35.55;15.90;;;18.00;88.70;;;;;;5075025;28;20495;-76
2021/10/19 08:08:07;;;;;;;34.55;16.50;;;18.10;88.20;;;;;;5073795;28;20028;-77
2021/10/19 08:10:33;;;;;;;;;;;18.20;88.00;;;;;;5069886;28;20026;-77
2021/10/19 08:12:58;;;;;;;26.75;14.25;;;18.10;87.60;;;;;;5061859;28;20031;-77
2021/10/19 08:15:24;;;;;;;27.52;12.90;;;18.10;87.60;;;;;;5075819;28;20050;-77
2021/10/19 08:17:50;;;;;;;30.17;14.13;;;18.00;87.40;;;;;;5074731;28;20021;-77
2021/10/19 08:20:16;;;;;;;25.90;12.75;;;17.90;87.80;;;;;;5075677;28;20021;-77
2021/10/19 08:22:42;;;;;;;29.63;13.70;;;17.90;87.80;;;;;;5075436;28;20025;-77
2021/10/19 08:25:09;;;;;;;30.58;13.45;;;17.90;88.00;;;;;;5074733;28;20368;-77
2021/10/19 08:27:37;;;;;;;29.85;14.05;;;17.90;88.10;;;;;;5075622;28;20013;-77
2021/10/19 08:30:06;;;;;;;23.98;12.90;;;17.80;88.10;;;;;;5074131;28;20035;-77
2021/10/19 08:32:32;;;;;;;30.88;14.50;;;17.80;87.90;;;;;;5074047;28;20123;-76
2021/10/19 08:34:58;;;;;;;31.33;13.77;;;18.00;87.80;;;;;;5073036;28;20527;-76
2021/10/19 08:37:24;;;;;;;29.27;13.95;;;18.30;87.60;;;;;;5074691;28;20657;-77
2021/10/19 08:39:50;;;;;;;26.92;13.25;;;18.50;86.40;;;;;;5075346;28;20035;-76
2021/10/19 08:42:15;;;;;;;26.10;13.02;;;18.70;86.20;;;;;;5090936;28;20037;-77
2021/10/19 08:44:41;;;;;;;24.60;12.00;;;18.80;86.30;;;;;;5073187;28;20036;-76
2021/10/19 08:47:08;;;;;;;23.38;12.25;;;18.80;85.60;;;;;;5075241;28;20036;-77
2021/10/19 08:49:33;;;;;;;24.63;13.30;;;18.80;85.70;;;;;;5075429;28;20028;-76
2021/10/19 08:51:59;;;;;;;22.55;11.80;;;18.80;84.80;;;;;;5074268;28;20024;-77
2021/10/19 08:54:25;;;;;;;19.25;9.73;;;18.80;84.60;;;;;;5075247;28;20020;-77
2021/10/19 08:56:51;;;;;;;20.15;10.32;;;18.90;85.10;;;;;;5075197;28;20028;-77
2021/10/19 08:59:24;;;;;;;17.02;10.50;;;19.00;84.70;;;;;;5074436;28;20070;-77
2021/10/19 09:01:55;;;;;;;16.90;10.20;;;18.80;84.50;;;;;;5074779;28;20419;-76
2021/10/19 09:04:25;;;;;;;19.17;10.32;;;18.90;84.80;;;;;;5074293;28;20028;-77
2021/10/19 09:06:51;;;;;;;17.08;9.57;;;19.00;84.70;;;;;;5073885;28;20032;-77
2021/10/19 09:09:22;;;;;;;17.23;9.88;;;19.10;84.50;;;;;;5074967;28;20040;-77
2021/10/19 09:11:49;;;;;;;14.02;9.25;;;19.00;83.40;;;;;;5074264;28;20021;-77
2021/10/19 09:14:16;;;;;;;13.68;8.80;;;19.20;84.00;;;;;;5075067;28;20033;-77
2021/10/19 09:16:48;;;;;;;17.05;8.63;;;19.20;83.50;;;;;;5075006;28;20110;-76
2021/10/19 09:19:17;;;;;;;13.70;9.32;;;19.30;83.10;;;;;;5074343;28;20509;-77
2021/10/19 09:21:49;;;;;;;11.77;8.05;;;19.30;83.10;;;;;;5075348;28;20135;-76
2021/10/19 09:24:25;;;;;;;11.50;8.38;;;19.30;82.40;;;;;;5074816;28;20056;-77
2021/10/19 09:27:04;;;;;;;11.02;8.13;;;19.30;82.20;;;;;;5074063;28;20024;-77
2021/10/19 09:29:35;;;;;;;11.90;7.88;;;19.40;81.10;;;;;;5074382;28;20025;-76
2021/10/19 09:32:05;;;;;;;13.00;7.78;;;19.40;80.50;;;;;;5053585;28;20048;-76
2021/10/19 09:34:33;;;;;;;15.00;8.20;;;19.50;81.20;;;;;;5054694;28;20029;-76
2021/10/19 09:37:01;;;;;;;10.40;7.13;;;19.40;79.10;;;;;;5054877;28;20033;-76
2021/10/19 09:39:40;;;;;;;11.23;8.02;;;19.50;78.50;;;;;;5076373;28;20108;-77
2021/10/19 09:42:07;;;;;;;11.25;7.63;;;19.50;78.40;;;;;;5078188;28;20051;-76
2021/10/19 09:44:33;;;;;;;12.02;7.53;;;19.50;78.20;;;;;;5078282;28;20548;-76
2021/10/19 09:47:00;;;;;;;10.32;7.22;;;19.50;77.90;;;;;;5077120;28;20120;-76
2021/10/19 09:49:28;;;;;;;13.23;8.02;;;19.50;75.90;;;;;;5077442;28;20024;-76
2021/10/19 09:52:00;;;;;;;12.40;8.30;;;19.50;77.00;;;;;;5076964;28;20391;-76
2021/10/19 09:54:29;;;;;;;17.25;9.35;;;19.50;76.90;;;;;;5078233;28;20108;-76
2021/10/19 09:56:57;;;;;;;14.77;8.98;;;19.40;77.50;;;;;;5077368;28;20045;-76
2021/10/19 09:59:23;;;;;;;17.73;8.98;;;19.50;77.30;;;;;;5078280;28;20033;-76
2021/10/19 10:01:49;;;;;;;13.70;8.88;;;19.60;77.80;;;;;;5076622;28;20075;-76
2021/10/19 10:04:16;;;;;;;12.95;9.02;;;19.60;76.60;;;;;;5078032;28;20028;-76
2021/10/19 10:06:42;;;;;;;12.23;8.07;;;19.70;76.60;;;;;;5077293;28;20024;-76
2021/10/19 10:09:08;;;;;;;14.48;8.98;;;19.80;76.60;;;;;;5078209;28;20044;-76
2021/10/19 10:11:38;;;;;;;11.65;7.75;;;19.90;76.60;;;;;;5077208;28;20028;-76
2021/10/19 10:14:04;;;;;;;12.07;8.77;;;20.00;76.80;;;;;;5093626;28;20029;-76
2021/10/19 10:16:45;;;;;;;12.80;8.48;;;20.00;76.00;;;;;;5093424;28;20029;-76
2021/10/19 10:19:20;;;;;;;12.82;8.68;;;20.10;76.50;;;;;;5076113;28;20029;-76
2021/10/19 10:21:51;;;;;;;13.73;8.68;;;20.20;75.70;;;;;;5093358;28;20071;-77
2021/10/19 10:24:33;;;;;;;11.85;8.77;;;20.20;73.70;;;;;;5063293;28;20067;-76
2021/10/19 10:27:14;;;;;;;14.15;8.38;;;20.20;73.60;;;;;;5075361;28;20035;-76
2021/10/19 10:29:48;;;;;;;10.30;7.70;;;20.20;74.10;;;;;;5077630;28;20402;-77
2021/10/19 10:32:27;;;;;;;11.20;7.93;;;20.30;74.40;;;;;;5076593;28;20032;-76
2021/10/19 10:35:08;;;;;;;13.43;8.98;;;20.30;74.30;;;;;;5075644;28;20033;-77
2021/10/19 10:37:37;;;;;;;17.60;9.52;;;20.40;74.10;;;;;;5077622;28;20103;-76
2021/10/19 10:40:05;;;;;;;10.95;8.25;;;20.50;73.60;;;;;;5077558;28;20391;-76
2021/10/19 10:42:39;;;;;;;10.20;7.95;;;20.50;72.70;;;;;;5075991;28;20931;-76
2021/10/19 10:45:21;;;;;;;9.68;7.78;;;20.50;72.90;;;;;;5069941;28;20477;-76
2021/10/19 10:47:53;;;;;;;11.18;7.25;;;20.60;73.30;;;;;;5076465;28;20056;-76
2021/10/19 10:50:19;;;;;;;11.45;7.82;;;20.70;72.40;;;;;;5075886;28;20046;-76
2021/10/19 10:52:56;;;;;;;14.55;8.15;;;20.80;72.30;;;;;;5077203;28;20016;-76
2021/10/19 10:55:21;;;;;;;10.90;7.57;;;20.80;71.80;;;;;;5076346;28;20039;-77
2021/10/19 10:57:47;;;;;;;10.82;7.50;;;20.80;71.10;;;;;;5077091;28;20083;-76
2021/10/19 11:00:13;;;;;;;16.25;7.95;;;20.80;71.10;;;;;;5077106;28;20028;-77
2021/10/19 11:02:39;;;;;;;11.85;7.50;;;20.90;71.40;;;;;;5091546;28;20049;-76
2021/10/19 11:05:05;;;;;;;11.18;7.85;;;20.90;70.90;;;;;;5077137;28;20035;-76
2021/10/19 11:07:35;;;;;;;12.60;8.90;;;21.00;71.30;;;;;;5077136;28;20814;-76
2021/10/19 11:10:10;;;;;;;11.93;8.07;;;21.00;70.90;;;;;;5076343;28;20071;-76
2021/10/19 11:12:36;;;;;;;13.35;7.57;;;21.10;70.50;;;;;;5059024;28;20030;-76
2021/10/19 11:15:14;;;;;;;11.55;7.68;;;21.20;71.50;;;;;;5092279;28;20136;-76
2021/10/19 11:17:48;;;;;;;12.15;7.53;;;21.30;70.30;;;;;;5075823;28;20032;-76
2021/10/19 11:20:15;;;;;;;10.35;7.18;;;21.30;70.30;;;;;;5075830;28;20034;-76
2021/10/19 11:22:41;;;;;;;13.40;7.65;;;21.40;70.60;;;;;;5076795;28;20392;-76
2021/10/19 11:25:08;;;;;;;9.98;6.90;;;21.50;70.00;;;;;;5074297;28;20025;-76
2021/10/19 11:27:34;;;;;;;11.85;7.43;;;21.50;70.90;;;;;;5075076;28;20088;-77
2021/10/19 11:30:00;;;;;;;9.75;7.30;;;21.70;70.20;;;;;;5075067;28;20031;-76
2021/10/19 11:32:25;;;;;;;14.30;8.65;;;21.70;69.30;;;;;;5076344;28;20036;-76
2021/10/19 11:34:55;;;;;;;10.20;7.43;;;21.70;69.40;;;;;;5075707;28;20025;-76
2021/10/19 11:37:20;;;;;;;10.03;6.73;;;21.70;69.00;;;;;;5076393;28;20108;-76
2021/10/19 11:39:46;;;;;;;10.48;6.72;;;21.70;69.90;;;;;;5076511;28;20048;-76
2021/10/19 11:42:12;;;;;;;10.63;7.30;;;21.80;68.80;;;;;;5075208;28;20051;-77
2021/10/19 11:44:38;;;;;;;10.07;6.32;;;21.80;69.30;;;;;;5075207;28;20033;-77
2021/10/19 11:47:05;;;;;;;11.57;7.78;;;21.90;69.40;;;;;;5058552;28;20495;-76
2021/10/19 11:49:32;;;;;;;9.07;6.97;;;22.00;69.70;;;;;;5076386;28;20032;-77
2021/10/19 11:51:59;;;;;;;9.50;5.35;;;21.90;68.20;;;;;;5076154;28;20082;-77
2021/10/19 11:54:25;;;;;;;11.93;7.90;;;22.00;68.80;;;;;;5075362;28;20071;-77
2021/10/19 11:57:09;;;;;;;13.07;8.40;;;22.00;68.80;;;;;;5076259;28;20048;-76
2021/10/19 11:59:42;;;;;;;9.55;6.20;;;22.00;69.40;;;;;;5075791;28;20031;-76
2021/10/19 12:02:08;;;;;;;12.27;6.95;;;22.10;69.20;;;;;;5074656;28;20062;-77
2021/10/19 12:04:40;;;;;;;9.77;6.60;;;22.20;70.10;;;;;;5075831;28;20123;-76
2021/10/19 12:07:05;;;;;;;12.20;7.43;;;22.20;69.10;;;;;;5075768;28;20032;-76
2021/10/19 12:09:31;;;;;;;9.68;7.35;;;22.30;69.40;;;;;;5075751;28;20038;-76
2021/10/19 12:12:00;;;;;;;11.02;7.10;;;22.30;69.30;;;;;;5074870;28;20028;-76
2021/10/19 12:14:27;;;;;;;11.33;7.30;;;22.40;69.40;;;;;;5075743;28;20073;-77
2021/10/19 12:16:55;;;;;;;13.27;7.22;;;22.30;68.90;;;;;;5074475;28;20259;-76
2021/10/19 12:19:22;;;;;;;9.82;6.47;;;22.40;69.10;;;;;;5074990;28;20100;-76
2021/10/19 12:22:02;;;;;;;10.95;6.57;;;22.50;69.60;;;;;;5091143;28;20024;-76
2021/10/19 12:24:29;;;;;;;9.55;7.28;;;22.60;68.80;;;;;;5075209;28;20067;-76
2021/10/19 12:27:02;;;;;;;9.40;6.63;;;22.60;69.20;;;;;;5074626;28;20028;-76
2021/10/19 12:29:30;;;;;;;12.65;7.07;;;22.60;69.60;;;;;;5075438;28;20089;-76
2021/10/19 12:31:56;;;;;;;8.43;6.00;;;22.70;69.70;;;;;;5074731;28;20039;-77
2021/10/19 12:34:28;;;;;;;8.55;6.28;;;22.80;68.40;;;;;;5074488;28;20024;-77
2021/10/19 12:37:03;;;;;;;8.55;6.55;;;22.80;69.30;;;;;;5075461;28;20020;-77
2021/10/19 12:39:30;;;;;;;9.75;7.25;;;22.90;68.60;;;;;;5074660;28;20549;-77
2021/10/19 12:41:56;;;;;;;9.40;6.03;;;23.00;67.40;;;;;;5075391;28;20426;-77
2021/10/19 12:44:23;;;;;;;12.13;8.00;;;23.00;65.70;;;;;;5073998;28;20036;-76
2021/10/19 12:46:50;;;;;;;11.30;7.68;;;23.00;65.50;;;;;;5075331;28;20025;-76
2021/10/19 12:49:16;;;;;;;10.32;6.15;;;23.10;65.90;;;;;;5074429;28;20457;-76
2021/10/19 12:51:43;;;;;;;10.55;7.20;;;23.00;65.20;;;;;;5075105;28;20037;-76
2021/10/19 12:54:09;;;;;;;9.52;7.32;;;23.00;66.00;;;;;;5075189;28;20025;-76
2021/10/19 12:56:37;;;;;;;10.77;7.63;;;23.00;66.50;;;;;;5075315;28;20471;-77
2021/10/19 12:59:04;;;;;;;11.05;6.72;;;23.00;66.20;;;;;;5074147;28;20013;-77
2021/10/19 13:01:30;;;;;;;12.38;7.85;;;23.20;66.80;;;;;;5074989;28;20055;-76
2021/10/19 13:03:56;;;;;;;11.50;7.43;;;23.10;65.50;;;;;;5073597;28;20470;-76
2021/10/19 13:06:25;;;;;;;11.30;7.45;;;23.20;65.80;;;;;;5075341;28;20045;-76
2021/10/19 13:08:53;;;;;;;13.10;8.13;;;23.20;65.90;;;;;;5075233;28;20021;-76
2021/10/19 13:11:19;;;;;;;12.75;8.13;;;23.10;64.50;;;;;;5074197;28;20108;-76
2021/10/19 13:13:45;;;;;;;11.60;6.90;;;23.20;65.70;;;;;;5077955;28;20391;-76
2021/10/19 13:16:12;;;;;;;11.43;8.20;;;23.20;65.80;;;;;;5077040;28;20021;-77
2021/10/19 13:18:39;;;;;;;16.73;8.60;;;23.10;65.00;;;;;;5077771;28;20033;-77
2021/10/19 13:21:06;;;;;;;12.57;8.90;;;23.20;64.30;;;;;;5077658;28;20028;-77
2021/10/19 13:23:32;;;;;;;14.45;8.95;;;23.20;63.70;;;;;;5078965;28;20033;-77
2021/10/19 13:25:58;;;;;;;11.00;8.52;;;23.30;64.40;;;;;;5077944;28;20457;-76
2021/10/19 13:28:24;;;;;;;11.52;7.40;;;23.30;64.60;;;;;;5079044;28;20144;-76
2021/10/19 13:30:50;;;;;;;15.25;9.10;;;23.30;63.40;;;;;;5077818;28;20075;-77
2021/10/19 13:33:17;;;;;;;15.77;9.40;;;23.30;62.20;;;;;;5094642;28;20566;-77
2021/10/19 13:35:43;;;;;;;16.42;8.75;;;23.30;62.90;;;;;;5077942;28;20031;-77
2021/10/19 13:38:10;;;;;;;13.25;9.02;;;23.30;63.00;;;;;;5078608;28;20025;-76
2021/10/19 13:40:36;;;;;;;14.27;9.85;;;23.40;62.10;;;;;;5077795;28;20028;-77
2021/10/19 13:43:02;;;;;;;17.92;11.57;;;23.40;59.80;;;;;;5078483;28;20036;-77
2021/10/19 13:45:29;;;;;;;15.90;9.98;;;23.40;60.70;;;;;;5078481;28;20453;-77
2021/10/19 13:47:55;;;;;;;18.85;11.13;;;23.30;60.40;;;;;;5077473;28;20020;-77
2021/10/19 13:50:22;;;;;;;14.45;10.50;;;23.40;59.60;;;;;;5078399;28;20839;-77
2021/10/19 13:52:48;;;;;;;17.17;10.48;;;23.40;59.60;;;;;;5078280;28;20074;-77
2021/10/19 13:55:15;;;;;;;16.10;10.60;;;23.40;59.30;;;;;;5073898;28;20016;-77
2021/10/19 13:57:42;;;;;;;19.33;11.63;;;23.40;59.30;;;;;;5067215;28;20749;-76
2021/10/19 14:00:10;;;;;;;16.33;11.23;;;23.50;57.10;;;;;;5058051;28;20032;-77
2021/10/19 14:02:36;;;;;;;18.90;12.45;;;23.50;54.80;;;;;;5064285;28;20105;-76
2021/10/19 14:05:03;;;;;;;19.98;12.38;;;23.50;53.20;;;;;;5078134;28;20510;-77
2021/10/19 14:07:29;;;;;;;20.90;13.18;;;23.50;53.40;;;;;;5075902;28;20024;-76
2021/10/19 14:09:55;;;;;;;20.73;11.85;;;23.60;52.00;;;;;;5078165;28;20029;-76
2021/10/19 14:12:21;;;;;;;18.90;12.77;;;23.60;51.70;;;;;;5077998;28;20158;-76
2021/10/19 14:14:47;;;;;;;16.33;11.23;;;23.60;53.30;;;;;;5078132;28;20021;-76
2021/10/19 14:17:13;;;;;;;19.27;12.82;;;23.70;52.40;;;;;;5076878;28;20033;-76
2021/10/19 14:19:38;;;;;;;20.15;12.50;;;23.70;53.20;;;;;;5077608;28;20166;-77
2021/10/19 14:22:07;;;;;;;20.73;12.57;;;23.80;51.90;;;;;;5077849;28;20031;-76
2021/10/19 14:24:33;;;;;;;18.73;11.88;;;23.70;51.60;;;;;;5076553;28;20046;-76
2021/10/19 14:26:59;;;;;;;20.30;12.13;;;23.40;50.60;;;;;;5077806;28;20021;-76
2021/10/19 14:29:25;;;;;;;20.20;12.10;;;23.30;51.40;;;;;;5076796;28;20033;-76
2021/10/19 14:31:51;;;;;;;18.80;11.75;;;23.30;51.10;;;;;;5076068;28;20032;-77
2021/10/19 14:34:20;;;;;;;20.92;12.50;;;23.30;51.90;;;;;;5077719;28;20396;-77
2021/10/19 14:36:51;;;;;;;21.48;12.10;;;23.30;52.10;;;;;;5076214;28;20031;-76
2021/10/19 14:39:21;;;;;;;15.13;9.93;;;23.30;52.00;;;;;;5076738;28;20024;-76
2021/10/19 14:41:47;;;;;;;18.80;11.55;;;23.30;51.30;;;;;;5077467;28;20020;-76
2021/10/19 14:44:14;;;;;;;20.10;11.85;;;23.30;51.20;;;;;;5074439;28;20043;-75
2021/10/19 14:46:41;;;;;;;18.45;12.30;;;23.20;51.20;;;;;;5073352;28;20111;-76
2021/10/19 14:49:08;;;;;;;17.55;12.40;;;23.10;52.10;;;;;;5074522;28;20117;-80
2021/10/19 14:51:36;;;;;;;19.55;12.40;;;23.20;52.50;;;;;;5074890;28;20494;-77
2021/10/19 14:54:03;;;;;;;19.02;12.38;;;23.20;53.10;;;;;;5076249;28;20074;-76
2021/10/19 14:56:29;;;;;;;15.65;11.05;;;23.30;52.80;;;;;;5077254;28;20107;-78
2021/10/19 14:58:55;;;;;;;18.85;11.27;;;23.30;52.20;;;;;;5091242;28;20035;-78
2021/10/19 15:01:21;;;;;;;22.70;12.93;;;23.30;52.20;;;;;;5076391;28;20045;-78
2021/10/19 15:03:47;;;;;;;18.60;11.82;;;23.30;53.00;;;;;;5076140;28;20038;-78
2021/10/19 15:06:13;;;;;;;20.48;11.38;;;23.30;53.50;;;;;;5076393;28;20016;-78
2021/10/19 15:08:40;;;;;;;17.42;11.60;;;23.20;53.60;;;;;;5092035;28;20025;-78
2021/10/19 15:11:06;;;;;;;17.98;11.27;;;23.20;55.40;;;;;;5075500;28;20028;-78
2021/10/19 15:13:32;;;;;;;20.52;11.07;;;23.10;55.70;;;;;;5076190;28;20028;-78
2021/10/19 15:15:59;;;;;;;14.75;9.60;;;23.00;57.10;;;;;;5076560;28;20051;-77
2021/10/19 15:18:24;;;;;;;20.20;10.55;;;22.90;56.80;;;;;;5076317;28;20031;-78
2021/10/19 15:20:51;;;;;;;18.85;11.35;;;22.80;57.60;;;;;;5075584;28;20024;-78
2021/10/19 15:23:17;;;;;;;16.83;11.13;;;22.60;57.70;;;;;;5076170;28;20074;-77
2021/10/19 15:25:43;;;;;;;18.17;11.43;;;22.50;57.60;;;;;;5076298;28;20020;-78
2021/10/19 15:28:09;;;;;;;17.80;11.63;;;22.40;58.00;;;;;;5075548;28;20489;-78
2021/10/19 15:30:34;;;;;;;19.45;11.75;;;22.30;59.00;;;;;;5076739;28;20122;-77
2021/10/19 15:33:00;;;;;;;17.67;10.98;;;22.30;59.80;;;;;;5074948;28;20024;-78
2021/10/19 15:35:26;;;;;;;17.50;10.52;;;22.30;60.80;;;;;;5089988;28;20092;-78
2021/10/19 15:37:52;;;;;;;17.70;10.85;;;22.30;60.50;;;;;;5075365;28;20017;-78
2021/10/19 15:40:18;;;;;;;17.10;10.38;;;22.30;60.30;;;;;;5074836;28;20020;-78
2021/10/19 15:42:43;;;;;;;18.42;10.38;;;22.30;61.00;;;;;;5072902;28;20487;-78
2021/10/19 15:45:11;;;;;;;17.45;11.65;;;22.30;60.70;;;;;;5075168;28;20029;-78
2021/10/19 15:47:37;;;;;;;19.70;11.23;;;22.30;61.30;;;;;;5075056;28;20122;-78
2021/10/19 15:50:07;;;;;;;17.25;10.98;;;22.40;61.70;;;;;;5074132;28;20120;-77
2021/10/19 15:52:34;;;;;;;17.80;9.80;;;22.30;61.00;;;;;;5072851;28;20033;-76
2021/10/19 15:54:59;;;;;;;17.02;10.02;;;22.20;61.40;;;;;;5061013;28;20017;-79
2021/10/19 15:57:26;;;;;;;16.10;9.50;;;22.20;61.40;;;;;;5072661;28;20074;-78
2021/10/19 15:59:51;;;;;;;15.23;10.55;;;22.00;61.40;;;;;;5064385;28;20027;-78
2021/10/19 16:02:17;;;;;;;19.30;10.00;;;22.10;61.80;;;;;;5064847;28;20036;-77
2021/10/19 16:04:43;;;;;;;19.10;11.80;;;22.20;61.70;;;;;;5071379;28;20037;-80
2021/10/19 16:07:09;;;;;;;22.92;10.73;;;22.10;62.10;;;;;;5075552;28;20058;-78
2021/10/19 16:09:35;;;;;;;15.85;9.68;;;22.00;61.10;;;;;;5061887;28;20632;-77
2021/10/19 16:12:03;;;;;;;16.05;8.95;;;22.00;60.90;;;;;;5069057;28;20025;-77
2021/10/19 16:14:30;;;;;;;19.52;10.35;;;21.90;61.30;;;;;;5073912;28;20020;-78
2021/10/19 16:16:56;;;;;;;19.00;10.65;;;21.80;61.70;;;;;;5086425;28;20545;-84
2021/10/19 16:19:21;;;;;;;17.95;11.18;;;21.80;62.20;;;;;;5072254;28;20021;-78
2021/10/19 16:21:47;;;;;;;16.70;10.35;;;21.80;62.30;;;;;;5067728;28;20029;-77
2021/10/19 16:24:13;;;;;;;17.77;10.70;;;21.70;61.70;;;;;;5065213;28;20163;-78
2021/10/19 16:26:39;;;;;;;20.08;11.02;;;21.70;61.70;;;;;;5086494;28;20555;-78
2021/10/19 16:29:06;;;;;;;16.52;10.75;;;21.50;61.80;;;;;;5069513;28;20054;-80
2021/10/19 16:31:33;;;;;;;18.92;10.82;;;21.30;61.40;;;;;;5073135;28;20036;-78
2021/10/19 16:34:00;;;;;;;19.25;10.70;;;21.30;62.00;;;;;;5070757;28;20024;-78
2021/10/19 16:36:26;;;;;;;15.65;9.73;;;21.30;61.90;;;;;;5061400;28;20025;-78
2021/10/19 16:38:55;;;;;;;17.92;9.73;;;21.10;62.20;;;;;;5075314;28;20855;-79
2021/10/19 16:41:22;;;;;;;23.00;11.50;;;21.10;62.10;;;;;;5090940;28;20031;-75
2021/10/19 16:43:47;;;;;;;15.30;9.95;;;21.00;62.40;;;;;;5069107;28;20036;-76
2021/10/19 16:46:14;;;;;;;18.98;9.50;;;21.00;62.30;;;;;;5068198;28;20025;-77
2021/10/19 16:48:41;;;;;;;18.77;11.05;;;20.90;63.00;;;;;;5061497;28;20037;-77
2021/10/19 16:51:06;;;;;;;18.88;11.70;;;20.80;62.70;;;;;;5082199;28;20047;-77
2021/10/19 16:53:32;;;;;;;20.15;11.52;;;20.80;62.90;;;;;;5065698;28;20482;-78
2021/10/19 16:55:58;;;;;;;18.60;11.82;;;20.80;63.50;;;;;;5072091;28;20048;-77
2021/10/19 16:58:24;;;;;;;19.15;10.93;;;20.60;63.30;;;;;;5069140;28;20522;-77
2021/10/19 17:00:49;;;;;;;17.70;10.13;;;20.50;63.20;;;;;;5068593;28;20036;-76
2021/10/19 17:03:15;;;;;;;17.52;10.45;;;20.30;63.50;;;;;;5063043;28;20031;-76
2021/10/19 17:05:41;;;;;;;17.63;10.20;;;20.40;63.30;;;;;;5063404;28;20029;-75
2021/10/19 17:08:07;;;;;;;19.35;10.98;;;20.30;63.90;;;;;;5062300;28;20025;-77
2021/10/19 17:10:32;;;;;;;13.50;9.35;;;20.20;64.00;;;;;;5080274;28;20033;-78
2021/10/19 17:13:01;;;;;;;18.50;11.40;;;20.20;64.10;;;;;;5064324;28;20025;-77
2021/10/19 17:15:29;;;;;;;17.45;11.45;;;20.10;64.00;;;;;;5069064;28;20020;-84